sensor_id;sensor_type;location;lat;lon;timestamp;temperature;humidity
22795;DHT22;11564;50.920;11.612;2023-01-19T00:00:15;-5.50;99.90
22795;DHT22;11564;50.920;11.612;2023-01-19T00:02:42;-5.50;99.90
22795;DHT22;11564;50.920;11.612;2023-01-19T00:05:12;-5.40;99.90
22795;DHT22;11564;50.920;11.612;2023-01-19T00:07:38;-5.40;99.90
22795;DHT22;11564;50.920;11.612;2023-01-19T00:10:04;-5.50;99.90
22795;DHT22;11564;50.920;11.612;2023-01-19T00:12:33;-5.60;99.90
22795;DHT22;11564;50.920;11.612;2023-01-19T00:14:58;-5.60;99.90
22795;DHT22;11564;50.920;11.612;2023-01-19T00:17:24;-5.70;99.90
22795;DHT22;11564;50.920;11.612;2023-01-19T00:19:49;-5.70;99.90
22795;DHT22;11564;50.920;11.612;2023-01-19T00:22:15;-5.80;99.90
22795;DHT22;11564;50.920;11.612;2023-01-19T00:24:41;-5.80;99.90
22795;DHT22;11564;50.920;11.612;2023-01-19T00:27:06;-5.90;99.90
22795;DHT22;11564;50.920;11.612;2023-01-19T00:32:00;-6.00;99.90
22795;DHT22;11564;50.920;11.612;2023-01-19T00:34:26;-6.00;99.90
22795;DHT22;11564;50.920;11.612;2023-01-19T00:36:53;-6.00;99.90
22795;DHT22;11564;50.920;11.612;2023-01-19T00:39:19;-6.00;99.90
22795;DHT22;11564;50.920;11.612;2023-01-19T00:41:44;-6.00;99.90
22795;DHT22;11564;50.920;11.612;2023-01-19T00:44:29;-6.00;99.90
22795;DHT22;11564;50.920;11.612;2023-01-19T00:46:54;-6.00;99.90
22795;DHT22;11564;50.920;11.612;2023-01-19T00:49:20;-6.10;99.90
22795;DHT22;11564;50.920;11.612;2023-01-19T00:51:45;-6.00;99.90
22795;DHT22;11564;50.920;11.612;2023-01-19T00:54:11;-6.10;99.90
22795;DHT22;11564;50.920;11.612;2023-01-19T00:56:37;-6.10;99.90
22795;DHT22;11564;50.920;11.612;2023-01-19T00:59:02;-6.20;99.90
22795;DHT22;11564;50.920;11.612;2023-01-19T01:01:28;-6.20;99.90
22795;DHT22;11564;50.920;11.612;2023-01-19T01:03:53;-6.20;99.90
22795;DHT22;11564;50.920;11.612;2023-01-19T01:06:21;-6.30;99.90
22795;DHT22;11564;50.920;11.612;2023-01-19T01:08:46;-6.00;99.90
22795;DHT22;11564;50.920;11.612;2023-01-19T01:11:12;-5.80;99.90
22795;DHT22;11564;50.920;11.612;2023-01-19T01:13:38;-5.90;99.90
22795;DHT22;11564;50.920;11.612;2023-01-19T01:16:04;-5.70;99.90
22795;DHT22;11564;50.920;11.612;2023-01-19T01:18:30;-5.50;99.90
22795;DHT22;11564;50.920;11.612;2023-01-19T01:21:03;-5.40;99.90
22795;DHT22;11564;50.920;11.612;2023-01-19T01:23:29;-5.30;99.90
22795;DHT22;11564;50.920;11.612;2023-01-19T01:25:55;-5.10;99.90
22795;DHT22;11564;50.920;11.612;2023-01-19T01:28:21;-5.10;99.90
22795;DHT22;11564;50.920;11.612;2023-01-19T01:30:46;-5.10;99.90
22795;DHT22;11564;50.920;11.612;2023-01-19T01:33:12;-5.00;99.90
22795;DHT22;11564;50.920;11.612;2023-01-19T01:35:38;-5.00;99.90
22795;DHT22;11564;50.920;11.612;2023-01-19T01:38:04;-4.90;99.90
22795;DHT22;11564;50.920;11.612;2023-01-19T01:40:30;-5.00;99.90
22795;DHT22;11564;50.920;11.612;2023-01-19T01:42:55;-4.90;99.90
22795;DHT22;11564;50.920;11.612;2023-01-19T01:47:50;-4.70;99.90
22795;DHT22;11564;50.920;11.612;2023-01-19T01:50:27;-4.60;99.90
22795;DHT22;11564;50.920;11.612;2023-01-19T01:52:58;-4.50;99.90
22795;DHT22;11564;50.920;11.612;2023-01-19T01:55:26;-4.50;99.90
22795;DHT22;11564;50.920;11.612;2023-01-19T01:57:57;-4.60;99.90
22795;DHT22;11564;50.920;11.612;2023-01-19T02:00:24;-4.50;99.90
22795;DHT22;11564;50.920;11.612;2023-01-19T02:02:50;-4.50;99.90
22795;DHT22;11564;50.920;11.612;2023-01-19T02:05:27;-4.50;99.90
22795;DHT22;11564;50.920;11.612;2023-01-19T02:08:12;-4.50;99.90
22795;DHT22;11564;50.920;11.612;2023-01-19T02:10:59;-4.60;99.90
22795;DHT22;11564;50.920;11.612;2023-01-19T02:13:44;-4.70;99.90
22795;DHT22;11564;50.920;11.612;2023-01-19T02:16:13;-4.80;99.90
22795;DHT22;11564;50.920;11.612;2023-01-19T02:18:39;-4.90;99.90
22795;DHT22;11564;50.920;11.612;2023-01-19T02:21:33;-5.10;99.90
22795;DHT22;11564;50.920;11.612;2023-01-19T02:24:00;-5.20;99.90
22795;DHT22;11564;50.920;11.612;2023-01-19T02:26:40;-5.30;99.90
22795;DHT22;11564;50.920;11.612;2023-01-19T02:29:08;-5.40;99.90
22795;DHT22;11564;50.920;11.612;2023-01-19T02:31:36;-5.40;99.90
22795;DHT22;11564;50.920;11.612;2023-01-19T02:34:03;-5.50;99.90
22795;DHT22;11564;50.920;11.612;2023-01-19T02:36:43;-5.60;99.90
22795;DHT22;11564;50.920;11.612;2023-01-19T02:39:10;-5.70;99.90
22795;DHT22;11564;50.920;11.612;2023-01-19T02:41:41;-5.80;99.90
22795;DHT22;11564;50.920;11.612;2023-01-19T02:44:08;-5.90;99.90
22795;DHT22;11564;50.920;11.612;2023-01-19T02:46:35;-5.90;99.90
22795;DHT22;11564;50.920;11.612;2023-01-19T02:49:01;-5.90;99.90
22795;DHT22;11564;50.920;11.612;2023-01-19T02:51:26;-5.90;99.90
22795;DHT22;11564;50.920;11.612;2023-01-19T03:00:02;-5.90;99.90
22795;DHT22;11564;50.920;11.612;2023-01-19T03:02:47;-6.00;99.90
22795;DHT22;11564;50.920;11.612;2023-01-19T03:05:41;-6.00;99.90
22795;DHT22;11564;50.920;11.612;2023-01-19T03:08:36;-6.10;99.90
22795;DHT22;11564;50.920;11.612;2023-01-19T03:11:07;-6.00;99.90
22795;DHT22;11564;50.920;11.612;2023-01-19T03:16:22;-5.90;99.90
22795;DHT22;11564;50.920;11.612;2023-01-19T03:18:55;-5.70;99.90
22795;DHT22;11564;50.920;11.612;2023-01-19T03:21:25;-5.40;99.90
22795;DHT22;11564;50.920;11.612;2023-01-19T03:23:53;-5.30;99.90
22795;DHT22;11564;50.920;11.612;2023-01-19T03:26:24;-5.10;99.90
22795;DHT22;11564;50.920;11.612;2023-01-19T03:28:51;-5.00;99.90
22795;DHT22;11564;50.920;11.612;2023-01-19T03:31:23;-5.00;99.90
22795;DHT22;11564;50.920;11.612;2023-01-19T03:33:52;-4.90;99.90
22795;DHT22;11564;50.920;11.612;2023-01-19T03:36:26;-4.80;99.90
22795;DHT22;11564;50.920;11.612;2023-01-19T03:38:56;-4.80;99.90
22795;DHT22;11564;50.920;11.612;2023-01-19T03:41:23;-4.80;99.90
22795;DHT22;11564;50.920;11.612;2023-01-19T03:43:52;-4.80;99.90
22795;DHT22;11564;50.920;11.612;2023-01-19T03:46:20;-4.90;99.90
22795;DHT22;11564;50.920;11.612;2023-01-19T03:48:47;-5.00;99.90
22795;DHT22;11564;50.920;11.612;2023-01-19T03:51:13;-4.80;99.90
22795;DHT22;11564;50.920;11.612;2023-01-19T03:53:40;-4.70;99.90
22795;DHT22;11564;50.920;11.612;2023-01-19T03:56:07;-4.70;99.90
22795;DHT22;11564;50.920;11.612;2023-01-19T03:58:36;-4.80;99.90
22795;DHT22;11564;50.920;11.612;2023-01-19T04:01:01;-4.90;99.90
22795;DHT22;11564;50.920;11.612;2023-01-19T04:03:28;-4.90;99.90
22795;DHT22;11564;50.920;11.612;2023-01-19T04:05:55;-4.90;99.90
22795;DHT22;11564;50.920;11.612;2023-01-19T04:08:21;-4.90;99.90
22795;DHT22;11564;50.920;11.612;2023-01-19T04:10:46;-4.80;99.90
22795;DHT22;11564;50.920;11.612;2023-01-19T04:13:12;-4.80;99.90
22795;DHT22;11564;50.920;11.612;2023-01-19T04:15:37;-4.70;99.90
22795;DHT22;11564;50.920;11.612;2023-01-19T04:18:03;-4.60;99.90
22795;DHT22;11564;50.920;11.612;2023-01-19T04:20:29;-4.50;99.90
22795;DHT22;11564;50.920;11.612;2023-01-19T04:22:58;-4.50;99.90
22795;DHT22;11564;50.920;11.612;2023-01-19T04:25:25;-4.40;99.90
22795;DHT22;11564;50.920;11.612;2023-01-19T04:27:54;-4.40;99.90
22795;DHT22;11564;50.920;11.612;2023-01-19T04:30:20;-4.40;99.90
22795;DHT22;11564;50.920;11.612;2023-01-19T04:32:46;-4.40;99.90
22795;DHT22;11564;50.920;11.612;2023-01-19T04:35:12;-4.40;99.90
22795;DHT22;11564;50.920;11.612;2023-01-19T04:37:38;-4.40;99.90
22795;DHT22;11564;50.920;11.612;2023-01-19T04:40:04;-4.30;99.90
22795;DHT22;11564;50.920;11.612;2023-01-19T04:42:30;-4.20;99.90
22795;DHT22;11564;50.920;11.612;2023-01-19T04:44:56;-4.20;99.90
22795;DHT22;11564;50.920;11.612;2023-01-19T04:47:22;-4.20;99.90
22795;DHT22;11564;50.920;11.612;2023-01-19T04:49:47;-4.20;99.90
22795;DHT22;11564;50.920;11.612;2023-01-19T04:52:13;-4.20;99.90
22795;DHT22;11564;50.920;11.612;2023-01-19T04:54:39;-4.20;99.90
22795;DHT22;11564;50.920;11.612;2023-01-19T04:57:04;-4.10;99.90
22795;DHT22;11564;50.920;11.612;2023-01-19T04:59:30;-4.20;99.90
22795;DHT22;11564;50.920;11.612;2023-01-19T05:01:55;-4.20;99.90
22795;DHT22;11564;50.920;11.612;2023-01-19T05:04:22;-4.20;99.90
22795;DHT22;11564;50.920;11.612;2023-01-19T05:06:48;-4.10;99.90
22795;DHT22;11564;50.920;11.612;2023-01-19T05:09:13;-4.00;99.90
22795;DHT22;11564;50.920;11.612;2023-01-19T05:11:40;-3.90;99.90
22795;DHT22;11564;50.920;11.612;2023-01-19T05:14:06;-3.80;99.90
22795;DHT22;11564;50.920;11.612;2023-01-19T05:16:32;-3.80;99.90
22795;DHT22;11564;50.920;11.612;2023-01-19T05:18:59;-3.90;99.90
22795;DHT22;11564;50.920;11.612;2023-01-19T05:21:24;-3.90;99.90
22795;DHT22;11564;50.920;11.612;2023-01-19T05:23:50;-3.80;99.90
22795;DHT22;11564;50.920;11.612;2023-01-19T05:26:16;-3.80;99.90
22795;DHT22;11564;50.920;11.612;2023-01-19T05:28:42;-3.80;99.90
22795;DHT22;11564;50.920;11.612;2023-01-19T05:31:07;-3.90;99.90
22795;DHT22;11564;50.920;11.612;2023-01-19T05:33:33;-3.90;99.90
22795;DHT22;11564;50.920;11.612;2023-01-19T05:35:59;-3.90;99.90
22795;DHT22;11564;50.920;11.612;2023-01-19T05:38:24;-4.00;99.90
22795;DHT22;11564;50.920;11.612;2023-01-19T05:40:56;-4.00;99.90
22795;DHT22;11564;50.920;11.612;2023-01-19T05:43:22;-3.80;99.90
22795;DHT22;11564;50.920;11.612;2023-01-19T05:45:50;-3.80;99.90
22795;DHT22;11564;50.920;11.612;2023-01-19T05:48:15;-3.80;99.90
22795;DHT22;11564;50.920;11.612;2023-01-19T05:50:41;-3.80;99.90
22795;DHT22;11564;50.920;11.612;2023-01-19T05:53:07;-3.90;99.90
22795;DHT22;11564;50.920;11.612;2023-01-19T05:55:32;-3.80;99.90
22795;DHT22;11564;50.920;11.612;2023-01-19T05:57:58;-3.90;99.90
22795;DHT22;11564;50.920;11.612;2023-01-19T06:00:24;-3.90;99.90
22795;DHT22;11564;50.920;11.612;2023-01-19T06:02:51;-3.80;99.90
22795;DHT22;11564;50.920;11.612;2023-01-19T06:05:18;-3.70;99.90
22795;DHT22;11564;50.920;11.612;2023-01-19T06:07:43;-3.80;99.90
22795;DHT22;11564;50.920;11.612;2023-01-19T06:10:09;-3.70;99.90
22795;DHT22;11564;50.920;11.612;2023-01-19T06:12:37;-3.70;99.90
22795;DHT22;11564;50.920;11.612;2023-01-19T06:15:03;-3.80;99.90
22795;DHT22;11564;50.920;11.612;2023-01-19T06:17:31;-3.80;99.90
22795;DHT22;11564;50.920;11.612;2023-01-19T06:19:56;-3.80;99.90
22795;DHT22;11564;50.920;11.612;2023-01-19T06:22:22;-3.80;99.90
22795;DHT22;11564;50.920;11.612;2023-01-19T06:24:48;-3.80;99.90
22795;DHT22;11564;50.920;11.612;2023-01-19T06:27:14;-3.80;99.90
22795;DHT22;11564;50.920;11.612;2023-01-19T06:29:40;-3.80;99.90
22795;DHT22;11564;50.920;11.612;2023-01-19T06:32:06;-3.70;99.90
22795;DHT22;11564;50.920;11.612;2023-01-19T06:34:31;-3.70;99.90
22795;DHT22;11564;50.920;11.612;2023-01-19T06:36:57;-3.70;99.90
22795;DHT22;11564;50.920;11.612;2023-01-19T06:39:23;-3.60;99.90
22795;DHT22;11564;50.920;11.612;2023-01-19T06:41:49;-3.70;99.90
22795;DHT22;11564;50.920;11.612;2023-01-19T06:44:15;-3.60;99.90
22795;DHT22;11564;50.920;11.612;2023-01-19T06:46:40;-3.60;99.90
22795;DHT22;11564;50.920;11.612;2023-01-19T06:49:06;-3.70;99.90
22795;DHT22;11564;50.920;11.612;2023-01-19T06:51:32;-3.60;99.90
22795;DHT22;11564;50.920;11.612;2023-01-19T06:53:58;-3.70;99.90
22795;DHT22;11564;50.920;11.612;2023-01-19T06:56:24;-3.70;99.90
22795;DHT22;11564;50.920;11.612;2023-01-19T06:58:50;-3.80;99.90
22795;DHT22;11564;50.920;11.612;2023-01-19T07:01:17;-3.80;99.90
22795;DHT22;11564;50.920;11.612;2023-01-19T07:03:43;-3.80;99.90
22795;DHT22;11564;50.920;11.612;2023-01-19T07:06:09;-3.80;99.90
22795;DHT22;11564;50.920;11.612;2023-01-19T07:08:36;-3.80;99.90
22795;DHT22;11564;50.920;11.612;2023-01-19T07:11:06;-3.80;99.90
22795;DHT22;11564;50.920;11.612;2023-01-19T07:13:33;-3.70;99.90
22795;DHT22;11564;50.920;11.612;2023-01-19T07:16:07;-3.70;99.90
22795;DHT22;11564;50.920;11.612;2023-01-19T07:18:34;-3.70;99.90
22795;DHT22;11564;50.920;11.612;2023-01-19T07:20:59;-3.80;99.90
22795;DHT22;11564;50.920;11.612;2023-01-19T07:23:26;-3.80;99.90
22795;DHT22;11564;50.920;11.612;2023-01-19T07:25:57;-3.80;99.90
22795;DHT22;11564;50.920;11.612;2023-01-19T07:28:25;-3.80;99.90
22795;DHT22;11564;50.920;11.612;2023-01-19T07:30:51;-3.80;99.90
22795;DHT22;11564;50.920;11.612;2023-01-19T07:33:17;-3.80;99.90
22795;DHT22;11564;50.920;11.612;2023-01-19T07:35:46;-3.80;99.90
22795;DHT22;11564;50.920;11.612;2023-01-19T07:38:13;-3.70;99.90
22795;DHT22;11564;50.920;11.612;2023-01-19T07:40:38;-3.70;99.90
22795;DHT22;11564;50.920;11.612;2023-01-19T07:43:04;-3.60;99.90
22795;DHT22;11564;50.920;11.612;2023-01-19T07:45:29;-3.50;99.90
22795;DHT22;11564;50.920;11.612;2023-01-19T07:47:55;-3.50;99.90
22795;DHT22;11564;50.920;11.612;2023-01-19T07:50:21;-3.50;99.90
22795;DHT22;11564;50.920;11.612;2023-01-19T07:52:50;-3.40;99.90
22795;DHT22;11564;50.920;11.612;2023-01-19T07:55:18;-3.40;99.90
22795;DHT22;11564;50.920;11.612;2023-01-19T07:57:47;-3.30;99.90
22795;DHT22;11564;50.920;11.612;2023-01-19T08:00:14;-3.20;99.90
22795;DHT22;11564;50.920;11.612;2023-01-19T08:02:39;-3.20;99.90
22795;DHT22;11564;50.920;11.612;2023-01-19T08:05:05;-3.20;99.90
22795;DHT22;11564;50.920;11.612;2023-01-19T08:07:32;-2.90;99.90
22795;DHT22;11564;50.920;11.612;2023-01-19T08:09:58;-2.90;99.90
22795;DHT22;11564;50.920;11.612;2023-01-19T08:12:24;-2.90;99.90
22795;DHT22;11564;50.920;11.612;2023-01-19T08:14:49;-2.90;99.90
22795;DHT22;11564;50.920;11.612;2023-01-19T08:17:15;-2.90;99.90
22795;DHT22;11564;50.920;11.612;2023-01-19T08:19:41;-2.90;99.90
22795;DHT22;11564;50.920;11.612;2023-01-19T08:22:07;-2.80;99.90
22795;DHT22;11564;50.920;11.612;2023-01-19T08:24:33;-2.80;99.90
22795;DHT22;11564;50.920;11.612;2023-01-19T08:26:59;-2.70;99.90
22795;DHT22;11564;50.920;11.612;2023-01-19T08:29:26;-2.70;99.90
22795;DHT22;11564;50.920;11.612;2023-01-19T08:31:52;-2.70;99.90
22795;DHT22;11564;50.920;11.612;2023-01-19T08:34:20;-2.60;99.90
22795;DHT22;11564;50.920;11.612;2023-01-19T08:36:45;-2.70;99.90
22795;DHT22;11564;50.920;11.612;2023-01-19T08:39:12;-2.60;99.90
22795;DHT22;11564;50.920;11.612;2023-01-19T08:41:37;-2.60;99.90
22795;DHT22;11564;50.920;11.612;2023-01-19T08:44:03;-2.50;99.90
22795;DHT22;11564;50.920;11.612;2023-01-19T08:46:29;-2.50;99.90
22795;DHT22;11564;50.920;11.612;2023-01-19T08:48:55;-2.50;99.90
22795;DHT22;11564;50.920;11.612;2023-01-19T08:51:21;-2.40;99.90
22795;DHT22;11564;50.920;11.612;2023-01-19T08:53:47;-2.40;99.90
22795;DHT22;11564;50.920;11.612;2023-01-19T08:56:13;-2.30;99.90
22795;DHT22;11564;50.920;11.612;2023-01-19T08:58:40;-2.30;99.90
22795;DHT22;11564;50.920;11.612;2023-01-19T09:01:06;-2.30;99.90
22795;DHT22;11564;50.920;11.612;2023-01-19T09:03:33;-2.30;99.90
22795;DHT22;11564;50.920;11.612;2023-01-19T09:05:59;-2.20;99.90
22795;DHT22;11564;50.920;11.612;2023-01-19T09:08:25;-2.10;99.90
22795;DHT22;11564;50.920;11.612;2023-01-19T09:10:51;-2.20;99.90
22795;DHT22;11564;50.920;11.612;2023-01-19T09:13:18;-2.10;99.90
22795;DHT22;11564;50.920;11.612;2023-01-19T09:15:44;-2.10;99.90
22795;DHT22;11564;50.920;11.612;2023-01-19T09:18:15;-2.00;99.90
22795;DHT22;11564;50.920;11.612;2023-01-19T09:20:42;-1.90;99.90
22795;DHT22;11564;50.920;11.612;2023-01-19T09:23:10;-1.80;99.90
22795;DHT22;11564;50.920;11.612;2023-01-19T09:25:37;-1.60;99.90
22795;DHT22;11564;50.920;11.612;2023-01-19T09:28:04;-1.40;99.90
22795;DHT22;11564;50.920;11.612;2023-01-19T09:30:30;-1.20;99.90
22795;DHT22;11564;50.920;11.612;2023-01-19T09:33:04;-1.10;99.90
22795;DHT22;11564;50.920;11.612;2023-01-19T09:35:34;-1.00;99.90
22795;DHT22;11564;50.920;11.612;2023-01-19T09:38:01;-0.80;99.90
22795;DHT22;11564;50.920;11.612;2023-01-19T09:40:27;-0.60;99.90
22795;DHT22;11564;50.920;11.612;2023-01-19T09:43:32;-0.50;99.90
22795;DHT22;11564;50.920;11.612;2023-01-19T09:46:14;-0.40;99.90
22795;DHT22;11564;50.920;11.612;2023-01-19T09:48:50;-0.30;99.90
22795;DHT22;11564;50.920;11.612;2023-01-19T09:51:28;-0.30;99.90
22795;DHT22;11564;50.920;11.612;2023-01-19T09:54:24;-0.10;99.90
22795;DHT22;11564;50.920;11.612;2023-01-19T09:56:52;0.10;99.90
22795;DHT22;11564;50.920;11.612;2023-01-19T09:59:29;0.10;99.90
22795;DHT22;11564;50.920;11.612;2023-01-19T10:02:26;0.20;99.90
22795;DHT22;11564;50.920;11.612;2023-01-19T10:04:59;0.20;99.90
22795;DHT22;11564;50.920;11.612;2023-01-19T10:10:21;0.10;99.90
22795;DHT22;11564;50.920;11.612;2023-01-19T10:15:51;0.10;99.90
22795;DHT22;11564;50.920;11.612;2023-01-19T10:18:28;0.30;99.90
22795;DHT22;11564;50.920;11.612;2023-01-19T10:26:24;0.80;99.90
22795;DHT22;11564;50.920;11.612;2023-01-19T10:28:50;1.00;99.90
22795;DHT22;11564;50.920;11.612;2023-01-19T10:31:19;1.00;99.90
22795;DHT22;11564;50.920;11.612;2023-01-19T10:33:48;0.80;99.90
22795;DHT22;11564;50.920;11.612;2023-01-19T10:36:21;0.80;99.90
22795;DHT22;11564;50.920;11.612;2023-01-19T10:38:48;0.60;99.90
22795;DHT22;11564;50.920;11.612;2023-01-19T10:41:18;0.60;99.90
22795;DHT22;11564;50.920;11.612;2023-01-19T10:43:45;0.60;99.90
22795;DHT22;11564;50.920;11.612;2023-01-19T10:46:25;0.60;99.90
22795;DHT22;11564;50.920;11.612;2023-01-19T10:48:54;0.70;99.90
22795;DHT22;11564;50.920;11.612;2023-01-19T10:51:20;0.80;99.90
22795;DHT22;11564;50.920;11.612;2023-01-19T10:53:58;0.90;99.90
22795;DHT22;11564;50.920;11.612;2023-01-19T10:56:28;1.20;99.90
22795;DHT22;11564;50.920;11.612;2023-01-19T10:58:55;1.40;99.90
22795;DHT22;11564;50.920;11.612;2023-01-19T11:01:25;1.40;99.90
22795;DHT22;11564;50.920;11.612;2023-01-19T11:03:52;1.70;99.90
22795;DHT22;11564;50.920;11.612;2023-01-19T11:06:21;1.50;99.90
22795;DHT22;11564;50.920;11.612;2023-01-19T11:08:48;1.60;99.90
22795;DHT22;11564;50.920;11.612;2023-01-19T11:11:17;1.70;99.90
22795;DHT22;11564;50.920;11.612;2023-01-19T11:13:44;1.70;99.90
22795;DHT22;11564;50.920;11.612;2023-01-19T11:16:28;1.70;99.90
22795;DHT22;11564;50.920;11.612;2023-01-19T11:18:56;1.90;99.90
22795;DHT22;11564;50.920;11.612;2023-01-19T11:21:24;2.10;99.90
22795;DHT22;11564;50.920;11.612;2023-01-19T11:23:52;2.20;99.90
22795;DHT22;11564;50.920;11.612;2023-01-19T11:28:56;2.30;99.90
22795;DHT22;11564;50.920;11.612;2023-01-19T11:34:01;2.10;99.90
22795;DHT22;11564;50.920;11.612;2023-01-19T11:36:30;2.00;99.90
22795;DHT22;11564;50.920;11.612;2023-01-19T11:38:58;2.00;99.90
22795;DHT22;11564;50.920;11.612;2023-01-19T11:41:32;2.00;99.90
22795;DHT22;11564;50.920;11.612;2023-01-19T11:46:37;2.40;99.90
22795;DHT22;11564;50.920;11.612;2023-01-19T11:49:11;2.50;99.90
22795;DHT22;11564;50.920;11.612;2023-01-19T11:51:51;2.20;99.90
22795;DHT22;11564;50.920;11.612;2023-01-19T11:54:24;2.30;99.90
22795;DHT22;11564;50.920;11.612;2023-01-19T11:56:55;2.40;99.90
22795;DHT22;11564;50.920;11.612;2023-01-19T11:59:22;2.40;99.90
22795;DHT22;11564;50.920;11.612;2023-01-19T12:01:55;2.40;99.90
22795;DHT22;11564;50.920;11.612;2023-01-19T12:04:33;2.10;99.90
22795;DHT22;11564;50.920;11.612;2023-01-19T12:07:03;2.10;99.90
22795;DHT22;11564;50.920;11.612;2023-01-19T12:09:47;2.10;99.90
22795;DHT22;11564;50.920;11.612;2023-01-19T12:12:32;2.00;99.90
22795;DHT22;11564;50.920;11.612;2023-01-19T12:15:01;2.00;99.90
22795;DHT22;11564;50.920;11.612;2023-01-19T12:17:34;1.90;99.90
22795;DHT22;11564;50.920;11.612;2023-01-19T12:25:50;2.30;99.90
22795;DHT22;11564;50.920;11.612;2023-01-19T12:28:17;2.80;99.90
22795;DHT22;11564;50.920;11.612;2023-01-19T12:30:44;3.20;99.90
22795;DHT22;11564;50.920;11.612;2023-01-19T12:33:44;3.70;99.90
22795;DHT22;11564;50.920;11.612;2023-01-19T12:36:10;3.60;99.90
22795;DHT22;11564;50.920;11.612;2023-01-19T12:39:03;3.90;99.90
22795;DHT22;11564;50.920;11.612;2023-01-19T12:41:32;4.30;99.90
22795;DHT22;11564;50.920;11.612;2023-01-19T12:46:36;5.10;99.90
22795;DHT22;11564;50.920;11.612;2023-01-19T12:49:25;4.90;99.90
22795;DHT22;11564;50.920;11.612;2023-01-19T12:54:37;6.50;98.50
22795;DHT22;11564;50.920;11.612;2023-01-19T12:57:14;8.10;94.50
22795;DHT22;11564;50.920;11.612;2023-01-19T12:59:42;7.80;91.40
22795;DHT22;11564;50.920;11.612;2023-01-19T13:18:56;5.70;86.60
22795;DHT22;11564;50.920;11.612;2023-01-19T13:21:29;5.20;90.20
22795;DHT22;11564;50.920;11.612;2023-01-19T13:23:56;4.70;91.10
22795;DHT22;11564;50.920;11.612;2023-01-19T13:26:29;4.50;92.10
22795;DHT22;11564;50.920;11.612;2023-01-19T13:29:05;4.10;93.00
22795;DHT22;11564;50.920;11.612;2023-01-19T13:31:40;3.60;94.80
22795;DHT22;11564;50.920;11.612;2023-01-19T13:34:24;3.30;94.90
22795;DHT22;11564;50.920;11.612;2023-01-19T13:36:52;2.90;95.30
22795;DHT22;11564;50.920;11.612;2023-01-19T13:39:29;2.60;96.70
22795;DHT22;11564;50.920;11.612;2023-01-19T13:42:01;2.50;97.00
22795;DHT22;11564;50.920;11.612;2023-01-19T13:44:36;2.50;97.70
22795;DHT22;11564;50.920;11.612;2023-01-19T13:47:07;2.40;98.10
22795;DHT22;11564;50.920;11.612;2023-01-19T13:49:38;2.20;98.80
22795;DHT22;11564;50.920;11.612;2023-01-19T13:52:21;2.20;99.60
22795;DHT22;11564;50.920;11.612;2023-01-19T13:54:49;2.20;99.50
22795;DHT22;11564;50.920;11.612;2023-01-19T13:57:23;2.00;99.40
22795;DHT22;11564;50.920;11.612;2023-01-19T14:05:32;1.80;99.90
22795;DHT22;11564;50.920;11.612;2023-01-19T14:10:44;1.80;99.90
22795;DHT22;11564;50.920;11.612;2023-01-19T14:15:44;1.90;99.90
22795;DHT22;11564;50.920;11.612;2023-01-19T14:21:12;1.90;99.90
22795;DHT22;11564;50.920;11.612;2023-01-19T14:23:52;2.00;99.90
22795;DHT22;11564;50.920;11.612;2023-01-19T14:26:50;1.90;99.90
22795;DHT22;11564;50.920;11.612;2023-01-19T14:29:28;1.90;99.90
22795;DHT22;11564;50.920;11.612;2023-01-19T14:32:13;2.00;99.90
22795;DHT22;11564;50.920;11.612;2023-01-19T14:34:51;2.00;99.90
22795;DHT22;11564;50.920;11.612;2023-01-19T14:37:27;1.90;99.90
22795;DHT22;11564;50.920;11.612;2023-01-19T14:42:30;1.90;99.90
22795;DHT22;11564;50.920;11.612;2023-01-19T14:44:59;1.90;99.90
22795;DHT22;11564;50.920;11.612;2023-01-19T14:47:32;1.90;99.90
22795;DHT22;11564;50.920;11.612;2023-01-19T14:50:06;1.90;99.90
22795;DHT22;11564;50.920;11.612;2023-01-19T14:52:37;1.70;99.90
22795;DHT22;11564;50.920;11.612;2023-01-19T14:55:03;1.60;99.90
22795;DHT22;11564;50.920;11.612;2023-01-19T14:57:36;1.80;99.90
22795;DHT22;11564;50.920;11.612;2023-01-19T15:00:14;1.90;99.90
22795;DHT22;11564;50.920;11.612;2023-01-19T15:02:42;1.90;99.90
22795;DHT22;11564;50.920;11.612;2023-01-19T15:05:08;1.90;99.90
22795;DHT22;11564;50.920;11.612;2023-01-19T15:07:35;1.90;99.90
22795;DHT22;11564;50.920;11.612;2023-01-19T15:10:02;1.80;99.90
22795;DHT22;11564;50.920;11.612;2023-01-19T15:12:28;1.80;99.90
22795;DHT22;11564;50.920;11.612;2023-01-19T15:14:54;1.80;99.90
22795;DHT22;11564;50.920;11.612;2023-01-19T15:17:20;1.80;99.90
22795;DHT22;11564;50.920;11.612;2023-01-19T15:19:51;1.80;99.90
22795;DHT22;11564;50.920;11.612;2023-01-19T15:22:17;1.90;99.90
22795;DHT22;11564;50.920;11.612;2023-01-19T15:24:42;1.80;99.90
22795;DHT22;11564;50.920;11.612;2023-01-19T15:27:11;1.90;99.90
22795;DHT22;11564;50.920;11.612;2023-01-19T15:29:37;1.90;99.90
22795;DHT22;11564;50.920;11.612;2023-01-19T15:32:07;1.90;99.90
22795;DHT22;11564;50.920;11.612;2023-01-19T15:34:34;1.80;99.90
22795;DHT22;11564;50.920;11.612;2023-01-19T15:36:59;1.80;99.90
22795;DHT22;11564;50.920;11.612;2023-01-19T15:39:25;1.80;99.90
22795;DHT22;11564;50.920;11.612;2023-01-19T15:41:51;1.80;99.90
22795;DHT22;11564;50.920;11.612;2023-01-19T15:44:17;1.80;99.90
22795;DHT22;11564;50.920;11.612;2023-01-19T15:46:43;1.70;99.90
22795;DHT22;11564;50.920;11.612;2023-01-19T15:49:08;1.70;99.90
22795;DHT22;11564;50.920;11.612;2023-01-19T15:51:34;1.60;99.90
22795;DHT22;11564;50.920;11.612;2023-01-19T15:53:59;1.70;99.90
22795;DHT22;11564;50.920;11.612;2023-01-19T15:56:27;1.70;99.90
22795;DHT22;11564;50.920;11.612;2023-01-19T15:58:54;1.70;99.90
22795;DHT22;11564;50.920;11.612;2023-01-19T16:01:22;1.70;99.90
22795;DHT22;11564;50.920;11.612;2023-01-19T16:03:48;1.70;99.90
22795;DHT22;11564;50.920;11.612;2023-01-19T16:06:14;1.70;99.90
22795;DHT22;11564;50.920;11.612;2023-01-19T16:08:41;1.70;99.90
22795;DHT22;11564;50.920;11.612;2023-01-19T16:11:10;1.70;99.90
22795;DHT22;11564;50.920;11.612;2023-01-19T16:13:36;1.80;99.90
22795;DHT22;11564;50.920;11.612;2023-01-19T16:16:08;1.70;99.90
22795;DHT22;11564;50.920;11.612;2023-01-19T16:18:37;1.70;99.90
22795;DHT22;11564;50.920;11.612;2023-01-19T16:21:03;1.60;99.90
22795;DHT22;11564;50.920;11.612;2023-01-19T16:23:29;1.60;99.90
22795;DHT22;11564;50.920;11.612;2023-01-19T16:26:00;1.60;99.90
22795;DHT22;11564;50.920;11.612;2023-01-19T16:28:29;1.70;99.90
22795;DHT22;11564;50.920;11.612;2023-01-19T16:30:55;1.50;99.90
22795;DHT22;11564;50.920;11.612;2023-01-19T16:33:20;1.50;99.90
22795;DHT22;11564;50.920;11.612;2023-01-19T16:35:46;1.40;99.90
22795;DHT22;11564;50.920;11.612;2023-01-19T16:38:12;1.50;99.90
22795;DHT22;11564;50.920;11.612;2023-01-19T16:40:37;1.40;99.90
22795;DHT22;11564;50.920;11.612;2023-01-19T16:43:03;1.40;99.90
22795;DHT22;11564;50.920;11.612;2023-01-19T16:45:28;1.30;99.90
22795;DHT22;11564;50.920;11.612;2023-01-19T16:47:54;1.30;99.90
22795;DHT22;11564;50.920;11.612;2023-01-19T16:50:20;1.20;99.90